sensor_id;sensor_type;location;lat;lon;timestamp;pressure;altitude;pressure_sealevel;temperature
24586;BMP280;12743;52.262;6.172;2023-04-24T00:00:44;98071.22;;;9.10
24586;BMP280;12743;52.262;6.172;2023-04-24T00:03:11;98060.75;;;9.13
24586;BMP280;12743;52.262;6.172;2023-04-24T00:05:39;98063.34;;;9.06
24586;BMP280;12743;52.262;6.172;2023-04-24T00:08:06;98075.69;;;9.09
24586;BMP280;12743;52.262;6.172;2023-04-24T00:10:33;98089.16;;;9.11
24586;BMP280;12743;52.262;6.172;2023-04-24T00:12:59;98062.63;;;9.09
24586;BMP280;12743;52.262;6.172;2023-04-24T00:15:26;98081.31;;;9.11
24586;BMP280;12743;52.262;6.172;2023-04-24T00:17:52;98069.69;;;9.16
24586;BMP280;12743;52.262;6.172;2023-04-24T00:20:20;98075.66;;;9.27
24586;BMP280;12743;52.262;6.172;2023-04-24T00:22:47;98089.91;;;9.19
24586;BMP280;12743;52.262;6.172;2023-04-24T00:25:14;98080.16;;;9.16
24586;BMP280;12743;52.262;6.172;2023-04-24T00:27:40;98113.06;;;9.20
24586;BMP280;12743;52.262;6.172;2023-04-24T00:30:08;98098.50;;;9.23
24586;BMP280;12743;52.262;6.172;2023-04-24T00:32:34;98107.06;;;9.27
24586;BMP280;12743;52.262;6.172;2023-04-24T00:35:01;98108.56;;;9.28
24586;BMP280;12743;52.262;6.172;2023-04-24T00:37:28;98106.34;;;9.33
24586;BMP280;12743;52.262;6.172;2023-04-24T00:39:55;98032.72;;;8.89
24586;BMP280;12743;52.262;6.172;2023-04-24T00:42:22;98111.59;;;9.30
24586;BMP280;12743;52.262;6.172;2023-04-24T00:44:48;98103.31;;;9.35
24586;BMP280;12743;52.262;6.172;2023-04-24T00:47:15;98112.28;;;9.45
24586;BMP280;12743;52.262;6.172;2023-04-24T00:49:42;98117.19;;;9.32
24586;BMP280;12743;52.262;6.172;2023-04-24T00:52:09;98111.94;;;9.35
24586;BMP280;12743;52.262;6.172;2023-04-24T00:54:36;98107.47;;;9.32
24586;BMP280;12743;52.262;6.172;2023-04-24T00:57:03;98130.28;;;9.35
24586;BMP280;12743;52.262;6.172;2023-04-24T00:59:30;98087.28;;;9.12
24586;BMP280;12743;52.262;6.172;2023-04-24T01:01:57;98114.91;;;9.34
24586;BMP280;12743;52.262;6.172;2023-04-24T01:04:24;98127.25;;;9.37
24586;BMP280;12743;52.262;6.172;2023-04-24T01:06:51;98131.38;;;9.38
24586;BMP280;12743;52.262;6.172;2023-04-24T01:09:19;98133.25;;;9.34
24586;BMP280;12743;52.262;6.172;2023-04-24T01:11:47;98135.13;;;9.33
24586;BMP280;12743;52.262;6.172;2023-04-24T01:14:14;98134.41;;;9.33
24586;BMP280;12743;52.262;6.172;2023-04-24T01:16:40;98128.78;;;9.38
24586;BMP280;12743;52.262;6.172;2023-04-24T01:19:10;98129.16;;;9.36
24586;BMP280;12743;52.262;6.172;2023-04-24T01:21:37;98129.91;;;9.30
24586;BMP280;12743;52.262;6.172;2023-04-24T01:24:05;98136.28;;;9.32
24586;BMP280;12743;52.262;6.172;2023-04-24T01:26:31;98140.38;;;9.33
24586;BMP280;12743;52.262;6.172;2023-04-24T01:28:58;98137.75;;;9.26
24586;BMP280;12743;52.262;6.172;2023-04-24T01:31:25;98125.78;;;9.15
24586;BMP280;12743;52.262;6.172;2023-04-24T01:33:52;98126.16;;;9.27
24586;BMP280;12743;52.262;6.172;2023-04-24T01:36:19;98133.66;;;9.22
24586;BMP280;12743;52.262;6.172;2023-04-24T01:38:46;98134.41;;;9.19
24586;BMP280;12743;52.262;6.172;2023-04-24T01:41:12;98126.91;;;9.21
24586;BMP280;12743;52.262;6.172;2023-04-24T01:43:39;98128.06;;;9.20
24586;BMP280;12743;52.262;6.172;2023-04-24T01:46:06;98125.44;;;9.23
24586;BMP280;12743;52.262;6.172;2023-04-24T01:48:35;98126.91;;;9.14
24586;BMP280;12743;52.262;6.172;2023-04-24T01:51:02;98119.84;;;9.04
24586;BMP280;12743;52.262;6.172;2023-04-24T01:53:29;98101.88;;;8.95
24586;BMP280;12743;52.262;6.172;2023-04-24T01:55:55;98131.78;;;9.15
24586;BMP280;12743;52.262;6.172;2023-04-24T01:58:24;98124.66;;;9.16
24586;BMP280;12743;52.262;6.172;2023-04-24T02:00:51;98123.56;;;9.10
24586;BMP280;12743;52.262;6.172;2023-04-24T02:03:17;98126.56;;;9.12
24586;BMP280;12743;52.262;6.172;2023-04-24T02:05:44;98127.28;;;9.09
24586;BMP280;12743;52.262;6.172;2023-04-24T02:08:11;98140.78;;;9.04
24586;BMP280;12743;52.262;6.172;2023-04-24T02:10:38;98122.81;;;8.99
24586;BMP280;12743;52.262;6.172;2023-04-24T02:13:04;98132.94;;;9.04
24586;BMP280;12743;52.262;6.172;2023-04-24T02:15:31;98098.50;;;8.77
24586;BMP280;12743;52.262;6.172;2023-04-24T02:17:57;98106.34;;;8.77
24586;BMP280;12743;52.262;6.172;2023-04-24T02:20:24;98126.53;;;9.01
24586;BMP280;12743;52.262;6.172;2023-04-24T02:22:52;98123.56;;;8.96
24586;BMP280;12743;52.262;6.172;2023-04-24T02:25:18;98131.41;;;8.92
24586;BMP280;12743;52.262;6.172;2023-04-24T02:27:45;98125.41;;;8.92
24586;BMP280;12743;52.262;6.172;2023-04-24T02:30:12;98129.91;;;8.95
24586;BMP280;12743;52.262;6.172;2023-04-24T02:32:38;98134.75;;;8.89
24586;BMP280;12743;52.262;6.172;2023-04-24T02:35:05;98116.47;;;8.93
24586;BMP280;12743;52.262;6.172;2023-04-24T02:37:32;98126.19;;;8.96
24586;BMP280;12743;52.262;6.172;2023-04-24T02:39:59;98109.38;;;8.86
24586;BMP280;12743;52.262;6.172;2023-04-24T02:42:26;98126.19;;;8.92
24586;BMP280;12743;52.262;6.172;2023-04-24T02:44:52;98129.16;;;8.94
24586;BMP280;12743;52.262;6.172;2023-04-24T02:47:19;98122.44;;;8.97
24586;BMP280;12743;52.262;6.172;2023-04-24T02:49:48;98119.09;;;9.03
24586;BMP280;12743;52.262;6.172;2023-04-24T02:52:14;98114.59;;;8.93
24586;BMP280;12743;52.262;6.172;2023-04-24T02:54:42;98126.53;;;8.98
24586;BMP280;12743;52.262;6.172;2023-04-24T02:57:08;98110.47;;;8.89
24586;BMP280;12743;52.262;6.172;2023-04-24T02:59:37;98118.69;;;8.94
24586;BMP280;12743;52.262;6.172;2023-04-24T03:02:04;98089.53;;;8.89
24586;BMP280;12743;52.262;6.172;2023-04-24T03:04:30;98110.81;;;8.98
24586;BMP280;12743;52.262;6.172;2023-04-24T03:06:58;98107.09;;;8.99
24586;BMP280;12743;52.262;6.172;2023-04-24T03:09:25;98100.00;;;8.99
24586;BMP280;12743;52.262;6.172;2023-04-24T03:11:52;98079.81;;;8.89
24586;BMP280;12743;52.262;6.172;2023-04-24T03:14:19;98101.88;;;8.95
24586;BMP280;12743;52.262;6.172;2023-04-24T03:16:45;98099.63;;;9.08
24586;BMP280;12743;52.262;6.172;2023-04-24T03:19:12;98066.38;;;8.73
24586;BMP280;12743;52.262;6.172;2023-04-24T03:21:53;98097.38;;;8.99
24586;BMP280;12743;52.262;6.172;2023-04-24T03:24:20;98105.63;;;9.12
24586;BMP280;12743;52.262;6.172;2023-04-24T03:26:47;98087.69;;;8.93
24586;BMP280;12743;52.262;6.172;2023-04-24T03:29:46;98103.00;;;9.05
24586;BMP280;12743;52.262;6.172;2023-04-24T03:32:14;98073.47;;;8.94
24586;BMP280;12743;52.262;6.172;2023-04-24T03:34:41;98102.25;;;9.11
24586;BMP280;12743;52.262;6.172;2023-04-24T03:37:10;98092.91;;;8.89
24586;BMP280;12743;52.262;6.172;2023-04-24T03:39:40;98107.47;;;9.15
24586;BMP280;12743;52.262;6.172;2023-04-24T03:42:08;98107.47;;;9.08
24586;BMP280;12743;52.262;6.172;2023-04-24T03:44:45;98111.59;;;9.05
24586;BMP280;12743;52.262;6.172;2023-04-24T03:47:11;98079.06;;;8.82
24586;BMP280;12743;52.262;6.172;2023-04-24T03:49:38;98100.38;;;9.01
24586;BMP280;12743;52.262;6.172;2023-04-24T03:52:05;98100.78;;;9.03
24586;BMP280;12743;52.262;6.172;2023-04-24T03:54:31;98112.69;;;9.08
24586;BMP280;12743;52.262;6.172;2023-04-24T03:56:58;98112.69;;;9.08
24586;BMP280;12743;52.262;6.172;2023-04-24T03:59:27;98079.81;;;8.82
24586;BMP280;12743;52.262;6.172;2023-04-24T04:02:16;98123.94;;;9.05
24586;BMP280;12743;52.262;6.172;2023-04-24T04:04:43;98120.56;;;9.04
24586;BMP280;12743;52.262;6.172;2023-04-24T04:07:10;98127.31;;;9.05
24586;BMP280;12743;52.262;6.172;2023-04-24T04:09:37;98129.91;;;9.09
24586;BMP280;12743;52.262;6.172;2023-04-24T04:12:04;98138.50;;;9.06
24586;BMP280;12743;52.262;6.172;2023-04-24T04:14:32;98134.78;;;8.96
24586;BMP280;12743;52.262;6.172;2023-04-24T04:16:59;98143.00;;;8.95
24586;BMP280;12743;52.262;6.172;2023-04-24T04:19:25;98135.53;;;8.93
24586;BMP280;12743;52.262;6.172;2023-04-24T04:21:52;98141.53;;;8.94
24586;BMP280;12743;52.262;6.172;2023-04-24T04:24:34;98144.13;;;9.01
24586;BMP280;12743;52.262;6.172;2023-04-24T04:27:04;98140.75;;;8.97
24586;BMP280;12743;52.262;6.172;2023-04-24T04:29:38;98134.03;;;8.99
24586;BMP280;12743;52.262;6.172;2023-04-24T04:32:09;98132.91;;;8.97
24586;BMP280;12743;52.262;6.172;2023-04-24T04:34:36;98132.50;;;8.88
24586;BMP280;12743;52.262;6.172;2023-04-24T04:37:05;98141.13;;;8.92
24586;BMP280;12743;52.262;6.172;2023-04-24T04:39:48;98101.13;;;8.77
24586;BMP280;12743;52.262;6.172;2023-04-24T04:42:21;98122.06;;;8.95
24586;BMP280;12743;52.262;6.172;2023-04-24T04:44:48;98124.31;;;8.86
24586;BMP280;12743;52.262;6.172;2023-04-24T04:47:21;98141.13;;;8.92
24586;BMP280;12743;52.262;6.172;2023-04-24T04:49:53;98143.38;;;8.90
24586;BMP280;12743;52.262;6.172;2023-04-24T04:52:23;98144.88;;;8.87
24586;BMP280;12743;52.262;6.172;2023-04-24T04:54:57;98140.38;;;8.95
24586;BMP280;12743;52.262;6.172;2023-04-24T04:57:34;98139.63;;;8.94
24586;BMP280;12743;52.262;6.172;2023-04-24T05:00:01;98133.28;;;8.92
24586;BMP280;12743;52.262;6.172;2023-04-24T05:02:40;98144.50;;;8.92
24586;BMP280;12743;52.262;6.172;2023-04-24T05:05:07;98129.16;;;8.87
24586;BMP280;12743;52.262;6.172;2023-04-24T05:07:34;98107.47;;;8.80
24586;BMP280;12743;52.262;6.172;2023-04-24T05:10:01;98136.28;;;8.94
24586;BMP280;12743;52.262;6.172;2023-04-24T05:12:29;98139.28;;;8.96
24586;BMP280;12743;52.262;6.172;2023-04-24T05:14:56;98137.41;;;8.93
24586;BMP280;12743;52.262;6.172;2023-04-24T05:17:24;98138.50;;;8.99
24586;BMP280;12743;52.262;6.172;2023-04-24T05:19:53;98146.00;;;8.93
24586;BMP280;12743;52.262;6.172;2023-04-24T05:22:20;98154.19;;;8.85
24586;BMP280;12743;52.262;6.172;2023-04-24T05:24:50;98156.81;;;8.85
24586;BMP280;12743;52.262;6.172;2023-04-24T05:27:31;98152.34;;;8.96
24586;BMP280;12743;52.262;6.172;2023-04-24T05:30:00;98150.09;;;8.94
24586;BMP280;12743;52.262;6.172;2023-04-24T05:32:28;98156.06;;;8.91
24586;BMP280;12743;52.262;6.172;2023-04-24T05:34:55;98163.53;;;8.79
24586;BMP280;12743;52.262;6.172;2023-04-24T05:37:21;98174.38;;;8.77
24586;BMP280;12743;52.262;6.172;2023-04-24T05:39:48;98191.91;;;8.69
24586;BMP280;12743;52.262;6.172;2023-04-24T05:42:15;98194.88;;;8.68
24586;BMP280;12743;52.262;6.172;2023-04-24T05:44:41;98139.16;;;8.39
24586;BMP280;12743;52.262;6.172;2023-04-24T05:47:08;98203.50;;;8.65
24586;BMP280;12743;52.262;6.172;2023-04-24T05:49:34;98192.63;;;8.59
24586;BMP280;12743;52.262;6.172;2023-04-24T05:52:01;98200.88;;;8.65
24586;BMP280;12743;52.262;6.172;2023-04-24T05:54:30;98200.13;;;8.64
24586;BMP280;12743;52.262;6.172;2023-04-24T05:56:57;98208.38;;;8.73
24586;BMP280;12743;52.262;6.172;2023-04-24T05:59:36;98208.72;;;8.68
24586;BMP280;12743;52.262;6.172;2023-04-24T06:02:03;98209.81;;;8.67
24586;BMP280;12743;52.262;6.172;2023-04-24T06:04:30;98231.47;;;8.50
24586;BMP280;12743;52.262;6.172;2023-04-24T06:06:57;98200.50;;;8.63
24586;BMP280;12743;52.262;6.172;2023-04-24T06:09:25;98222.16;;;8.60
24586;BMP280;12743;52.262;6.172;2023-04-24T06:11:52;98239.38;;;8.71
24586;BMP280;12743;52.262;6.172;2023-04-24T06:14:23;98237.81;;;8.53
24586;BMP280;12743;52.262;6.172;2023-04-24T06:17:09;98243.84;;;8.57
24586;BMP280;12743;52.262;6.172;2023-04-24T06:19:38;98246.47;;;8.57
24586;BMP280;12743;52.262;6.172;2023-04-24T06:22:05;98245.34;;;8.65
24586;BMP280;12743;52.262;6.172;2023-04-24T06:24:35;98213.13;;;8.36
24586;BMP280;12743;52.262;6.172;2023-04-24T06:27:02;98255.03;;;8.61
24586;BMP280;12743;52.262;6.172;2023-04-24T06:29:29;98264.72;;;8.53
24586;BMP280;12743;52.262;6.172;2023-04-24T06:31:56;98251.66;;;8.53
24586;BMP280;12743;52.262;6.172;2023-04-24T06:34:22;98255.78;;;8.61
24586;BMP280;12743;52.262;6.172;2023-04-24T06:36:49;98263.59;;;8.54
24586;BMP280;12743;52.262;6.172;2023-04-24T06:39:16;98270.72;;;8.57
24586;BMP280;12743;52.262;6.172;2023-04-24T06:41:42;98252.38;;;8.50
24586;BMP280;12743;52.262;6.172;2023-04-24T06:44:17;98266.59;;;8.53
24586;BMP280;12743;52.262;6.172;2023-04-24T06:46:44;98247.88;;;8.51
24586;BMP280;12743;52.262;6.172;2023-04-24T06:49:11;98259.19;;;8.69
24586;BMP280;12743;52.262;6.172;2023-04-24T06:51:37;98258.81;;;8.63
24586;BMP280;12743;52.262;6.172;2023-04-24T06:54:04;98258.41;;;8.61
24586;BMP280;12743;52.262;6.172;2023-04-24T06:56:30;98251.28;;;8.55
24586;BMP280;12743;52.262;6.172;2023-04-24T06:58:57;98247.56;;;8.59
24586;BMP280;12743;52.262;6.172;2023-04-24T07:01:23;98243.47;;;8.69
24586;BMP280;12743;52.262;6.172;2023-04-24T07:03:50;98250.97;;;8.70
24586;BMP280;12743;52.262;6.172;2023-04-24T07:06:17;98243.88;;;8.78
24586;BMP280;12743;52.262;6.172;2023-04-24T07:08:45;98235.28;;;8.77
24586;BMP280;12743;52.262;6.172;2023-04-24T07:11:11;98240.91;;;8.76
24586;BMP280;12743;52.262;6.172;2023-04-24T07:13:38;98240.91;;;8.87
24586;BMP280;12743;52.262;6.172;2023-04-24T07:16:08;98233.84;;;8.94
24586;BMP280;12743;52.262;6.172;2023-04-24T07:18:35;98242.44;;;8.98
24586;BMP280;12743;52.262;6.172;2023-04-24T07:21:02;98240.91;;;8.87
24586;BMP280;12743;52.262;6.172;2023-04-24T07:23:29;98232.69;;;8.81
24586;BMP280;12743;52.262;6.172;2023-04-24T07:25:57;98253.63;;;8.85
24586;BMP280;12743;52.262;6.172;2023-04-24T07:28:23;98233.78;;;8.73
24586;BMP280;12743;52.262;6.172;2023-04-24T07:30:50;98261.13;;;8.86
24586;BMP280;12743;52.262;6.172;2023-04-24T07:33:20;98265.94;;;8.88
24586;BMP280;12743;52.262;6.172;2023-04-24T07:35:46;98258.50;;;8.90
24586;BMP280;12743;52.262;6.172;2023-04-24T07:38:13;98270.81;;;8.82
24586;BMP280;12743;52.262;6.172;2023-04-24T07:40:40;98253.19;;;8.65
24586;BMP280;12743;52.262;6.172;2023-04-24T07:43:06;98277.56;;;8.83
24586;BMP280;12743;52.262;6.172;2023-04-24T07:45:33;98289.16;;;8.89
24586;BMP280;12743;52.262;6.172;2023-04-24T07:48:03;98291.78;;;8.93
24586;BMP280;12743;52.262;6.172;2023-04-24T07:50:30;98288.03;;;8.87
24586;BMP280;12743;52.262;6.172;2023-04-24T07:52:56;98304.13;;;8.92
24586;BMP280;12743;52.262;6.172;2023-04-24T07:55:23;98283.25;;;9.17
24586;BMP280;12743;52.262;6.172;2023-04-24T07:57:53;98306.78;;;9.03
24586;BMP280;12743;52.262;6.172;2023-04-24T08:00:20;98310.50;;;8.95
24586;BMP280;12743;52.262;6.172;2023-04-24T08:02:47;98309.72;;;8.91
24586;BMP280;12743;52.262;6.172;2023-04-24T08:05:14;98315.69;;;8.84
24586;BMP280;12743;52.262;6.172;2023-04-24T08:07:41;98327.28;;;8.87
24586;BMP280;12743;52.262;6.172;2023-04-24T08:10:12;98299.16;;;8.62
24586;BMP280;12743;52.262;6.172;2023-04-24T08:12:38;98347.06;;;8.88
24586;BMP280;12743;52.262;6.172;2023-04-24T08:15:06;98351.59;;;8.91
24586;BMP280;12743;52.262;6.172;2023-04-24T08:17:34;98381.50;;;8.90
24586;BMP280;12743;52.262;6.172;2023-04-24T08:20:03;98379.97;;;8.85
24586;BMP280;12743;52.262;6.172;2023-04-24T08:22:31;98396.75;;;8.73
24586;BMP280;12743;52.262;6.172;2023-04-24T08:24:59;98404.59;;;8.73
24586;BMP280;12743;52.262;6.172;2023-04-24T08:27:26;98400.44;;;8.65
24586;BMP280;12743;52.262;6.172;2023-04-24T08:29:53;98420.28;;;8.70
24586;BMP280;12743;52.262;6.172;2023-04-24T08:32:20;98432.06;;;8.46
24586;BMP280;12743;52.262;6.172;2023-04-24T08:34:46;98436.94;;;8.51
24586;BMP280;12743;52.262;6.172;2023-04-24T08:37:15;98453.34;;;8.48
24586;BMP280;12743;52.262;6.172;2023-04-24T08:39:41;98462.66;;;8.42
24586;BMP280;12743;52.262;6.172;2023-04-24T08:42:08;98464.94;;;8.51
24586;BMP280;12743;52.262;6.172;2023-04-24T08:44:37;98469.50;;;8.57
24586;BMP280;12743;52.262;6.172;2023-04-24T08:47:04;98475.56;;;8.68
24586;BMP280;12743;52.262;6.172;2023-04-24T08:49:31;98483.03;;;8.66
24586;BMP280;12743;52.262;6.172;2023-04-24T08:51:58;98449.88;;;8.30
24586;BMP280;12743;52.262;6.172;2023-04-24T08:54:26;98497.97;;;8.66
24586;BMP280;12743;52.262;6.172;2023-04-24T08:56:53;98461.56;;;8.43
24586;BMP280;12743;52.262;6.172;2023-04-24T08:59:21;98499.50;;;8.70
24586;BMP280;12743;52.262;6.172;2023-04-24T09:01:49;98491.16;;;8.58
24586;BMP280;12743;52.262;6.172;2023-04-24T09:04:17;98518.53;;;8.64
24586;BMP280;12743;52.262;6.172;2023-04-24T09:06:48;98519.72;;;8.73
24586;BMP280;12743;52.262;6.172;2023-04-24T09:09:16;98520.44;;;8.70
24586;BMP280;12743;52.262;6.172;2023-04-24T09:11:43;98522.63;;;8.65
24586;BMP280;12743;52.262;6.172;2023-04-24T09:14:10;98537.53;;;8.61
24586;BMP280;12743;52.262;6.172;2023-04-24T09:16:37;98537.59;;;8.68
24586;BMP280;12743;52.262;6.172;2023-04-24T09:19:03;98542.47;;;8.66
24586;BMP280;12743;52.262;6.172;2023-04-24T09:21:34;98545.88;;;8.73
24586;BMP280;12743;52.262;6.172;2023-04-24T09:24:07;98551.56;;;8.83
24586;BMP280;12743;52.262;6.172;2023-04-24T09:26:36;98558.59;;;8.79
24586;BMP280;12743;52.262;6.172;2023-04-24T09:29:03;98547.31;;;8.71
24586;BMP280;12743;52.262;6.172;2023-04-24T09:31:30;98563.78;;;8.71
24586;BMP280;12743;52.262;6.172;2023-04-24T09:33:59;98574.19;;;8.64
24586;BMP280;12743;52.262;6.172;2023-04-24T09:39:01;98580.25;;;8.72
24586;BMP280;12743;52.262;6.172;2023-04-24T09:41:28;98575.31;;;8.63
24586;BMP280;12743;52.262;6.172;2023-04-24T09:44:10;98595.53;;;8.66
24586;BMP280;12743;52.262;6.172;2023-04-24T09:46:37;98599.66;;;8.71
24586;BMP280;12743;52.262;6.172;2023-04-24T09:49:13;98609.50;;;8.85
24586;BMP280;12743;52.262;6.172;2023-04-24T09:51:39;98617.78;;;8.90
24586;BMP280;12743;52.262;6.172;2023-04-24T09:54:14;98618.88;;;8.86
24586;BMP280;12743;52.262;6.172;2023-04-24T09:56:43;98625.22;;;8.85
24586;BMP280;12743;52.262;6.172;2023-04-24T09:59:18;98628.59;;;8.89
24586;BMP280;12743;52.262;6.172;2023-04-24T10:01:44;98644.69;;;8.87
24586;BMP280;12743;52.262;6.172;2023-04-24T10:04:22;98647.38;;;8.98
24586;BMP280;12743;52.262;6.172;2023-04-24T10:06:52;98655.84;;;8.81
24586;BMP280;12743;52.262;6.172;2023-04-24T10:09:21;98647.63;;;8.82
24586;BMP280;12743;52.262;6.172;2023-04-24T10:11:50;98661.00;;;8.73
24586;BMP280;12743;52.262;6.172;2023-04-24T10:14:19;98667.59;;;8.60
24586;BMP280;12743;52.262;6.172;2023-04-24T10:16:47;98676.94;;;8.61
24586;BMP280;12743;52.262;6.172;2023-04-24T10:19:15;98672.88;;;8.67
24586;BMP280;12743;52.262;6.172;2023-04-24T10:21:43;98678.78;;;8.61
24586;BMP280;12743;52.262;6.172;2023-04-24T10:24:14;98684.00;;;8.57
24586;BMP280;12743;52.262;6.172;2023-04-24T10:26:42;98685.41;;;8.51
24586;BMP280;12743;52.262;6.172;2023-04-24T10:29:10;98680.31;;;8.62
24586;BMP280;12743;52.262;6.172;2023-04-24T10:31:39;98693.56;;;8.80
24586;BMP280;12743;52.262;6.172;2023-04-24T10:34:06;98681.53;;;8.71
24586;BMP280;12743;52.262;6.172;2023-04-24T10:36:34;98688.09;;;8.92
24586;BMP280;12743;52.262;6.172;2023-04-24T10:39:03;98707.09;;;8.85
24586;BMP280;12743;52.262;6.172;2023-04-24T10:41:32;98713.44;;;8.84
24586;BMP280;12743;52.262;6.172;2023-04-24T10:44:09;98722.53;;;8.94
24586;BMP280;12743;52.262;6.172;2023-04-24T10:46:37;98723.19;;;9.27
24586;BMP280;12743;52.262;6.172;2023-04-24T10:49:08;98742.22;;;9.21
24586;BMP280;12743;52.262;6.172;2023-04-24T10:52:01;98785.97;;;9.17
24586;BMP280;12743;52.262;6.172;2023-04-24T10:54:45;98820.69;;;9.10
24586;BMP280;12743;52.262;6.172;2023-04-24T10:59:45;98878.53;;;9.35
24586;BMP280;12743;52.262;6.172;2023-04-24T11:02:14;98902.94;;;9.43
24586;BMP280;12743;52.262;6.172;2023-04-24T11:04:41;98959.84;;;9.42
24586;BMP280;12743;52.262;6.172;2023-04-24T11:07:12;98939.69;;;9.16
24586;BMP280;12743;52.262;6.172;2023-04-24T11:09:42;98987.16;;;9.45
24586;BMP280;12743;52.262;6.172;2023-04-24T11:12:11;98959.59;;;9.54
24586;BMP280;12743;52.262;6.172;2023-04-24T11:17:32;98971.78;;;9.69
24586;BMP280;12743;52.262;6.172;2023-04-24T11:20:07;98949.44;;;9.82
24586;BMP280;12743;52.262;6.172;2023-04-24T11:22:54;98950.69;;;9.62
24586;BMP280;12743;52.262;6.172;2023-04-24T11:25:21;98961.91;;;9.59
24586;BMP280;12743;52.262;6.172;2023-04-24T11:27:49;98945.69;;;9.47
24586;BMP280;12743;52.262;6.172;2023-04-24T11:30:20;98934.06;;;9.48
24586;BMP280;12743;52.262;6.172;2023-04-24T11:32:53;98962.63;;;9.23
24586;BMP280;12743;52.262;6.172;2023-04-24T11:35:22;98945.69;;;9.47
24586;BMP280;12743;52.262;6.172;2023-04-24T11:37:53;98962.22;;;9.54
24586;BMP280;12743;52.262;6.172;2023-04-24T11:40:23;98985.72;;;9.47
24586;BMP280;12743;52.262;6.172;2023-04-24T11:42:50;98957.03;;;9.61
24586;BMP280;12743;52.262;6.172;2023-04-24T11:45:25;98970.00;;;9.47
24586;BMP280;12743;52.262;6.172;2023-04-24T11:47:53;98994.16;;;9.33
24586;BMP280;12743;52.262;6.172;2023-04-24T11:50:23;99033.31;;;9.23
24586;BMP280;12743;52.262;6.172;2023-04-24T11:52:50;99020.91;;;9.46
24586;BMP280;12743;52.262;6.172;2023-04-24T11:57:48;99088.97;;;9.72
24586;BMP280;12743;52.262;6.172;2023-04-24T12:00:26;99132.47;;;10.06
24586;BMP280;12743;52.262;6.172;2023-04-24T12:03:04;99182.97;;;10.00
24586;BMP280;12743;52.262;6.172;2023-04-24T12:05:32;99187.44;;;10.29
24586;BMP280;12743;52.262;6.172;2023-04-24T12:08:00;99259.69;;;10.23
24586;BMP280;12743;52.262;6.172;2023-04-24T12:10:29;99281.88;;;10.26
24586;BMP280;12743;52.262;6.172;2023-04-24T12:12:57;99281.22;;;10.06
24586;BMP280;12743;52.262;6.172;2023-04-24T12:15:24;99287.41;;;9.94
24586;BMP280;12743;52.262;6.172;2023-04-24T12:17:52;99305.19;;;9.82
24586;BMP280;12743;52.262;6.172;2023-04-24T12:20:27;99241.63;;;9.88
24586;BMP280;12743;52.262;6.172;2023-04-24T12:22:56;99258.56;;;9.68
24586;BMP280;12743;52.262;6.172;2023-04-24T12:25:25;99248.13;;;9.49
24586;BMP280;12743;52.262;6.172;2023-04-24T12:27:53;99221.50;;;9.47
24586;BMP280;12743;52.262;6.172;2023-04-24T12:30:25;99225.88;;;9.62
24586;BMP280;12743;52.262;6.172;2023-04-24T12:32:52;99251.50;;;9.72
24586;BMP280;12743;52.262;6.172;2023-04-24T12:35:23;99297.84;;;9.91
24586;BMP280;12743;52.262;6.172;2023-04-24T12:37:49;99340.88;;;10.39
24586;BMP280;12743;52.262;6.172;2023-04-24T12:40:17;99369.47;;;10.21
24586;BMP280;12743;52.262;6.172;2023-04-24T12:42:51;99404.38;;;10.48
24586;BMP280;12743;52.262;6.172;2023-04-24T12:45:18;99463.56;;;10.45
24586;BMP280;12743;52.262;6.172;2023-04-24T12:47:45;99489.66;;;10.35
24586;BMP280;12743;52.262;6.172;2023-04-24T12:50:14;99531.00;;;9.99
24586;BMP280;12743;52.262;6.172;2023-04-24T12:52:42;99524.66;;;10.00
24586;BMP280;12743;52.262;6.172;2023-04-24T12:55:08;99509.69;;;9.82
24586;BMP280;12743;52.262;6.172;2023-04-24T12:57:37;99481.19;;;9.61
24586;BMP280;12743;52.262;6.172;2023-04-24T13:00:05;99379.84;;;9.46
24586;BMP280;12743;52.262;6.172;2023-04-24T13:02:33;99274.16;;;9.38
24586;BMP280;12743;52.262;6.172;2023-04-24T13:05:00;99264.78;;;9.37
24586;BMP280;12743;52.262;6.172;2023-04-24T13:07:27;99183.66;;;9.45
24586;BMP280;12743;52.262;6.172;2023-04-24T13:09:55;99201.69;;;9.72
24586;BMP280;12743;52.262;6.172;2023-04-24T13:12:22;99300.81;;;9.89
24586;BMP280;12743;52.262;6.172;2023-04-24T13:14:50;99402.50;;;9.99
24586;BMP280;12743;52.262;6.172;2023-04-24T13:17:16;99464.69;;;9.99
24586;BMP280;12743;52.262;6.172;2023-04-24T13:19:44;99387.22;;;10.28
24586;BMP280;12743;52.262;6.172;2023-04-24T13:22:12;99407.56;;;9.89
24586;BMP280;12743;52.262;6.172;2023-04-24T13:24:39;99421.81;;;9.69
24586;BMP280;12743;52.262;6.172;2023-04-24T13:27:08;99402.53;;;9.80
24586;BMP280;12743;52.262;6.172;2023-04-24T13:29:36;99384.69;;;9.67
24586;BMP280;12743;52.262;6.172;2023-04-24T13:32:03;99325.66;;;9.31
24586;BMP280;12743;52.262;6.172;2023-04-24T13:34:29;99299.84;;;9.10
24586;BMP280;12743;52.262;6.172;2023-04-24T13:36:57;99248.53;;;9.51
24586;BMP280;12743;52.262;6.172;2023-04-24T13:39:25;99297.13;;;9.26
24586;BMP280;12743;52.262;6.172;2023-04-24T13:41:53;99297.97;;;9.53
24586;BMP280;12743;52.262;6.172;2023-04-24T13:44:20;99291.19;;;9.29
24586;BMP280;12743;52.262;6.172;2023-04-24T13:46:49;99341.31;;;9.47
24586;BMP280;12743;52.262;6.172;2023-04-24T13:49:16;99341.31;;;9.27
24586;BMP280;12743;52.262;6.172;2023-04-24T13:51:43;99356.38;;;9.53
24586;BMP280;12743;52.262;6.172;2023-04-24T13:54:13;99339.75;;;9.04
24586;BMP280;12743;52.262;6.172;2023-04-24T13:56:40;99367.69;;;9.57
24586;BMP280;12743;52.262;6.172;2023-04-24T13:59:07;99411.66;;;9.67
24586;BMP280;12743;52.262;6.172;2023-04-24T14:01:33;99435.84;;;9.99
24586;BMP280;12743;52.262;6.172;2023-04-24T14:04:00;99510.84;;;10.03
24586;BMP280;12743;52.262;6.172;2023-04-24T14:06:27;99519.97;;;10.13
24586;BMP280;12743;52.262;6.172;2023-04-24T14:08:53;99501.97;;;9.89
24586;BMP280;12743;52.262;6.172;2023-04-24T14:11:20;99507.53;;;9.87
24586;BMP280;12743;52.262;6.172;2023-04-24T14:13:46;99433.19;;;9.76
24586;BMP280;12743;52.262;6.172;2023-04-24T14:16:13;99456.38;;;9.74
24586;BMP280;12743;52.262;6.172;2023-04-24T14:18:41;99433.81;;;9.51
24586;BMP280;12743;52.262;6.172;2023-04-24T14:21:07;99440.50;;;9.48
24586;BMP280;12743;52.262;6.172;2023-04-24T14:23:34;99398.94;;;9.47
24586;BMP280;12743;52.262;6.172;2023-04-24T14:26:00;99415.84;;;9.30
24586;BMP280;12743;52.262;6.172;2023-04-24T14:28:27;99330.75;;;9.43
24586;BMP280;12743;52.262;6.172;2023-04-24T14:30:54;99291.22;;;9.10
24586;BMP280;12743;52.262;6.172;2023-04-24T14:33:21;99345.47;;;9.09
24586;BMP280;12743;52.262;6.172;2023-04-24T14:35:47;99340.06;;;9.60
24586;BMP280;12743;52.262;6.172;2023-04-24T14:38:14;99340.75;;;9.57